createdAt,value
2022-12-14T00:02:01.045Z,86.66
2022-12-14T00:05:07.717Z,86.64
2022-12-14T00:08:16.467Z,86.64
2022-12-14T00:11:28.330Z,86.58
2022-12-14T00:14:38.919Z,86.54
2022-12-14T00:17:50.270Z,86.54
2022-12-14T00:20:59.033Z,86.53
2022-12-14T00:24:09.925Z,86.57
2022-12-14T00:27:17.959Z,86.57
2022-12-14T00:30:28.894Z,86.57
2022-12-14T00:33:35.229Z,86.57
2022-12-14T00:36:45.229Z,86.52
2022-12-14T00:39:52.703Z,86.53
2022-12-14T00:43:01.111Z,86.51
2022-12-14T00:46:09.916Z,86.41
2022-12-14T00:49:16.939Z,86.41
2022-12-14T00:52:26.065Z,86.34
2022-12-14T00:55:32.663Z,86.27
2022-12-14T00:58:40.795Z,86.30
2022-12-14T01:01:51.875Z,86.33
2022-12-14T01:05:00.270Z,86.29
2022-12-14T01:08:07.851Z,86.29
2022-12-14T01:11:20.998Z,86.23
2022-12-14T01:14:34.587Z,86.18
2022-12-14T01:17:43.714Z,86.07
2022-12-14T01:20:53.983Z,86.04
2022-12-14T01:24:09.724Z,86.00
2022-12-14T01:27:20.358Z,85.93
2022-12-14T01:30:29.342Z,85.89
2022-12-14T01:33:37.243Z,85.76
2022-12-14T01:36:46.361Z,85.67
2022-12-14T01:39:52.656Z,85.52
2022-12-14T01:43:00.536Z,85.45
2022-12-14T01:46:11.503Z,85.38
2022-12-14T01:49:24.718Z,85.29
2022-12-14T01:52:37.792Z,85.20
2022-12-14T01:55:53.557Z,85.12
2022-12-14T01:59:05.316Z,85.08
2022-12-14T02:02:15.485Z,85.09
2022-12-14T02:05:23.407Z,85.13
2022-12-14T02:08:31.691Z,85.14
2022-12-14T02:11:58.717Z,85.14
2022-12-14T02:15:05.070Z,85.11
2022-12-14T02:18:22.212Z,85.09
2022-12-14T02:22:01.935Z,85.11
2022-12-14T02:25:50.979Z,85.11
2022-12-14T02:29:11.196Z,85.08
2022-12-14T02:33:11.121Z,85.11
2022-12-14T02:36:28.614Z,85.10
2022-12-14T02:40:09.329Z,85.14
2022-12-14T02:43:36.857Z,85.17
2022-12-14T02:46:57.283Z,85.16
2022-12-14T02:50:34.205Z,85.19
2022-12-14T02:53:48.683Z,85.24
2022-12-14T02:57:02.582Z,85.20
2022-12-14T03:00:14.171Z,85.21
2022-12-14T03:03:24.296Z,85.23
2022-12-14T03:06:35.037Z,85.24
2022-12-14T03:09:43.811Z,85.24
2022-12-14T03:12:46.411Z,85.26
2022-12-14T03:15:56.660Z,85.30
2022-12-14T03:19:12.609Z,85.31
2022-12-14T03:22:29.447Z,85.37
2022-12-14T03:25:44.382Z,85.39
2022-12-14T03:29:11.825Z,85.43
2022-12-14T03:32:25.899Z,85.49
2022-12-14T03:35:51.403Z,85.44
2022-12-14T03:39:05.700Z,85.50
2022-12-14T03:42:42.628Z,85.56
2022-12-14T03:46:10.601Z,85.56
2022-12-14T03:49:49.009Z,85.47
2022-12-14T03:53:29.547Z,85.46
2022-12-14T03:57:02.321Z,85.43
2022-12-14T04:00:28.432Z,85.34
2022-12-14T04:04:09.025Z,85.34
2022-12-14T04:07:35.361Z,85.33
2022-12-14T04:11:08.605Z,85.30
2022-12-14T04:14:51.495Z,85.35
2022-12-14T04:18:19.362Z,85.34
2022-12-14T04:21:58.967Z,85.30
2022-12-14T04:25:36.029Z,85.21
2022-12-14T04:29:10.727Z,85.19
2022-12-14T04:32:45.186Z,85.12
2022-12-14T04:35:59.849Z,85.06
2022-12-14T04:39:24.244Z,85.03
2022-12-14T04:42:40.752Z,84.94
2022-12-14T04:45:59.180Z,84.93
2022-12-14T04:49:42.993Z,84.95
2022-12-14T04:53:26.267Z,84.93
2022-12-14T04:57:17.401Z,84.89
2022-12-14T05:00:36.747Z,84.86
2022-12-14T05:04:14.534Z,84.93
2022-12-14T05:07:32.673Z,84.94
2022-12-14T05:11:04.740Z,84.86
2022-12-14T05:14:05.870Z,84.79
2022-12-14T05:17:12.806Z,84.73
2022-12-14T05:20:21.483Z,84.66
2022-12-14T05:23:31.293Z,84.62
2022-12-14T05:26:46.561Z,84.62
2022-12-14T05:29:55.063Z,84.59
2022-12-14T05:33:07.118Z,84.56
2022-12-14T05:36:18.308Z,84.56
2022-12-14T05:39:34.449Z,84.47
2022-12-14T05:42:48.699Z,84.47
2022-12-14T05:45:54.972Z,84.45
2022-12-14T05:49:19.632Z,84.49
2022-12-14T05:52:31.443Z,84.51
2022-12-14T05:56:18.666Z,84.55
2022-12-14T05:59:31.494Z,84.62
2022-12-14T06:02:38.833Z,84.68
2022-12-14T06:05:44.764Z,84.65
2022-12-14T06:09:24.379Z,84.54
2022-12-14T06:13:03.742Z,84.51
2022-12-14T06:16:28.902Z,84.60
2022-12-14T06:20:01.486Z,84.77
2022-12-14T06:23:14.419Z,84.84
2022-12-14T06:26:33.220Z,84.91
2022-12-14T06:33:25.580Z,84.93
2022-12-14T06:36:42.319Z,84.97
2022-12-14T06:40:09.089Z,84.98
2022-12-14T06:43:23.690Z,84.98
2022-12-14T06:46:44.225Z,84.97
2022-12-14T06:49:51.267Z,84.97
2022-12-14T06:53:14.090Z,85.02
2022-12-14T06:56:34.489Z,84.97
2022-12-14T06:59:55.318Z,84.82
2022-12-14T07:03:08.789Z,84.72
2022-12-14T07:06:41.607Z,84.49
2022-12-14T07:09:53.472Z,84.31
2022-12-14T07:13:10.632Z,84.13
2022-12-14T07:16:34.701Z,84.00
2022-12-14T07:19:52.573Z,83.84
2022-12-14T07:23:08.089Z,83.67
2022-12-14T07:26:29.192Z,83.51
2022-12-14T07:29:51.885Z,83.42
2022-12-14T07:33:12.023Z,83.44
2022-12-14T07:36:43.371Z,83.40
2022-12-14T07:39:56.025Z,83.39
2022-12-14T07:43:24.211Z,83.32
2022-12-14T07:46:47.446Z,83.28
2022-12-14T07:50:00.544Z,83.31
2022-12-14T07:53:31.167Z,83.19
2022-12-14T07:56:44.604Z,83.09
2022-12-14T07:59:58.441Z,83.09
2022-12-14T08:03:16.352Z,83.00
2022-12-14T08:06:40.906Z,83.07
2022-12-14T08:13:44.641Z,83.17
2022-12-14T08:17:06.795Z,83.02
2022-12-14T08:20:22.964Z,82.72
2022-12-14T08:23:37.205Z,82.71
2022-12-14T08:30:27.093Z,82.74
2022-12-14T08:33:45.490Z,82.77
2022-12-14T08:37:00.914Z,82.83
2022-12-14T08:40:14.202Z,82.75
2022-12-14T08:43:35.249Z,82.59
2022-12-14T08:46:56.797Z,82.59
2022-12-14T08:50:12.531Z,82.62
2022-12-14T08:53:23.752Z,82.59
2022-12-14T08:56:35.519Z,82.51
2022-12-14T09:00:02.582Z,82.37
2022-12-14T09:03:20.219Z,82.34
2022-12-14T09:06:42.172Z,82.26
2022-12-14T09:09:53.046Z,82.20
2022-12-14T09:13:04.397Z,82.13
2022-12-14T09:16:32.026Z,82.15
2022-12-14T09:19:52.438Z,82.19
2022-12-14T09:23:09.943Z,82.08
2022-12-14T09:26:31.264Z,82.06
2022-12-14T09:29:59.087Z,82.17
2022-12-14T09:33:06.979Z,82.26
2022-12-14T09:36:28.576Z,82.38
2022-12-14T09:39:48.804Z,82.46
2022-12-14T09:43:18.983Z,82.44
2022-12-14T09:46:56.456Z,82.40
2022-12-14T09:50:34.307Z,82.38
2022-12-14T09:53:47.047Z,82.50
2022-12-14T09:57:03.429Z,82.46
2022-12-14T10:00:22.424Z,82.48
2022-12-14T10:03:41.969Z,82.53
2022-12-14T10:07:34.340Z,82.46
2022-12-14T10:25:38.382Z,82.39
2022-12-14T10:29:12.130Z,82.31
2022-12-14T10:36:58.708Z,81.98
2022-12-14T10:40:41.106Z,82.02
2022-12-14T10:44:37.052Z,82.06
2022-12-14T10:48:04.313Z,82.00
2022-12-14T10:51:25.885Z,81.96
2022-12-14T10:55:05.283Z,81.95
2022-12-14T10:58:19.922Z,82.01
2022-12-14T11:01:36.613Z,81.88
2022-12-14T11:05:22.139Z,81.82
2022-12-14T11:09:02.120Z,81.73
2022-12-14T11:12:36.154Z,81.78
2022-12-14T11:16:05.928Z,81.73
2022-12-14T11:23:34.565Z,81.66
2022-12-14T11:26:57.785Z,81.61
2022-12-14T11:31:02.268Z,81.72
2022-12-14T11:34:31.624Z,81.62
2022-12-14T11:37:45.426Z,81.61
2022-12-14T11:41:00.975Z,81.68
2022-12-14T11:48:50.713Z,81.66
2022-12-14T11:52:32.178Z,81.61
2022-12-14T11:55:44.770Z,81.49
2022-12-14T11:59:06.818Z,81.34
2022-12-14T12:03:16.870Z,81.35
2022-12-14T12:06:32.707Z,81.33
2022-12-14T12:09:55.953Z,81.28
2022-12-14T12:13:21.451Z,81.33
2022-12-14T12:16:39.880Z,81.38
2022-12-14T12:19:50.442Z,81.53
2022-12-14T12:23:14.505Z,81.44
2022-12-14T12:26:51.400Z,81.38
2022-12-14T12:30:10.392Z,81.33
2022-12-14T12:33:41.473Z,81.21
2022-12-14T12:37:25.429Z,81.25
2022-12-14T12:41:05.699Z,81.31
2022-12-14T12:48:22.171Z,81.23
2022-12-14T12:55:57.006Z,81.08
2022-12-14T12:59:17.858Z,80.94
2022-12-14T13:02:54.837Z,80.81
2022-12-14T13:06:10.209Z,80.78
2022-12-14T13:10:01.888Z,80.74
2022-12-14T13:13:20.286Z,80.64
2022-12-14T13:17:01.716Z,80.53
2022-12-14T13:21:23.823Z,80.52
2022-12-14T13:24:35.879Z,80.50
2022-12-14T13:28:36.391Z,80.66
2022-12-14T13:32:35.449Z,80.71
2022-12-14T13:36:51.753Z,80.74
2022-12-14T13:40:41.381Z,80.72
2022-12-14T13:44:44.200Z,80.66
2022-12-14T13:48:13.458Z,80.71
2022-12-14T13:51:41.917Z,80.64
2022-12-14T13:55:00.830Z,80.46
2022-12-14T13:58:34.589Z,80.28
2022-12-14T14:02:14.377Z,80.16
2022-12-14T14:05:49.593Z,80.05
2022-12-14T14:09:15.391Z,80.12
2022-12-14T14:12:48.846Z,80.21
2022-12-14T14:16:28.549Z,80.29
2022-12-14T14:19:49.372Z,80.29
2022-12-14T14:23:12.316Z,80.36
2022-12-14T14:26:59.180Z,80.41
2022-12-14T14:30:11.275Z,80.45
2022-12-14T14:34:12.589Z,80.53
2022-12-14T14:37:35.015Z,80.60
2022-12-14T14:41:18.147Z,80.71
2022-12-14T14:44:39.219Z,80.78
2022-12-14T14:48:02.222Z,80.85
2022-12-14T14:51:42.580Z,80.98
2022-12-14T14:55:21.774Z,81.10
2022-12-14T14:58:29.056Z,81.16
2022-12-14T15:01:49.547Z,81.21
2022-12-14T15:12:48.495Z,81.17
2022-12-14T15:16:06.768Z,81.17
2022-12-14T15:19:47.445Z,81.17
2022-12-14T15:22:58.339Z,81.21
2022-12-14T15:26:21.111Z,81.23
2022-12-14T15:33:18.845Z,81.23
2022-12-14T15:36:34.967Z,81.27
2022-12-14T15:39:52.295Z,81.26
2022-12-14T15:43:13.031Z,81.29
2022-12-14T15:46:37.201Z,81.23
2022-12-14T15:49:45.560Z,81.15
2022-12-14T15:53:03.778Z,81.15
2022-12-14T15:56:13.306Z,81.13
2022-12-14T15:59:40.630Z,81.09
2022-12-14T16:02:54.118Z,81.07
2022-12-14T16:06:12.865Z,81.13
2022-12-14T16:09:39.009Z,81.23
2022-12-14T16:12:59.669Z,81.27
2022-12-14T16:16:09.307Z,81.28
2022-12-14T16:19:28.690Z,81.25
2022-12-14T16:22:43.070Z,81.23
2022-12-14T16:26:18.837Z,81.08
2022-12-14T16:29:48.070Z,81.03
2022-12-14T16:32:59.599Z,81.01
2022-12-14T16:36:28.040Z,81.00
2022-12-14T16:39:42.061Z,81.01
2022-12-14T16:43:08.028Z,81.00
2022-12-14T16:46:25.119Z,81.01
2022-12-14T16:49:47.045Z,81.03
2022-12-14T16:53:04.164Z,80.98
2022-12-14T16:56:26.380Z,80.91
2022-12-14T16:59:42.884Z,80.66
2022-12-14T17:02:55.581Z,80.49
2022-12-14T17:06:13.637Z,80.36
2022-12-14T17:09:29.029Z,80.29
2022-12-14T17:12:53.484Z,80.24
2022-12-14T17:16:21.259Z,80.26
2022-12-14T17:19:35.873Z,80.32
2022-12-14T17:22:49.925Z,80.47
2022-12-14T17:26:11.028Z,80.60
2022-12-14T17:29:24.326Z,80.65
2022-12-14T17:32:40.892Z,80.73
2022-12-14T17:35:58.030Z,80.80
2022-12-14T17:39:09.329Z,80.87
2022-12-14T17:42:19.113Z,80.88
2022-12-14T17:45:46.216Z,80.85
2022-12-14T17:49:06.599Z,80.84
2022-12-14T17:52:18.701Z,80.83
2022-12-14T17:55:38.588Z,80.86
2022-12-14T17:58:47.926Z,80.88
2022-12-14T18:02:00.506Z,80.77
2022-12-14T18:05:14.728Z,80.72
2022-12-14T18:08:33.662Z,80.70
2022-12-14T18:12:14.380Z,80.63
2022-12-14T18:15:12.868Z,80.63
2022-12-14T18:18:39.600Z,80.72
2022-12-14T18:21:56.585Z,80.80
2022-12-14T18:25:09.007Z,80.80
2022-12-14T18:28:22.026Z,80.83
2022-12-14T18:31:40.196Z,80.73
2022-12-14T18:34:53.707Z,80.62
2022-12-14T18:38:01.560Z,80.63
2022-12-14T18:41:13.401Z,80.61
2022-12-14T18:44:24.147Z,80.47
2022-12-14T18:47:42.794Z,80.29
2022-12-14T18:50:56.501Z,80.11
2022-12-14T18:54:17.213Z,80.02
2022-12-14T18:57:31.303Z,80.12
2022-12-14T19:00:45.116Z,80.11
2022-12-14T19:03:59.241Z,80.09
2022-12-14T19:07:08.879Z,80.15
2022-12-14T19:10:29.469Z,80.19
2022-12-14T19:13:54.543Z,80.20
2022-12-14T19:17:18.028Z,80.06
2022-12-14T19:20:39.554Z,80.00
2022-12-14T19:23:59.600Z,79.90
2022-12-14T19:27:15.535Z,79.96
2022-12-14T19:30:25.531Z,80.18
2022-12-14T19:33:43.632Z,80.16
2022-12-14T19:36:57.098Z,79.93
2022-12-14T19:40:13.827Z,79.75
2022-12-14T19:43:24.744Z,79.85
2022-12-14T19:46:34.376Z,80.00
2022-12-14T19:49:48.837Z,79.96
2022-12-14T19:53:11.349Z,79.95
2022-12-14T19:56:25.523Z,80.00
2022-12-14T19:59:44.047Z,80.09
2022-12-14T20:03:01.654Z,80.07
2022-12-14T20:06:23.925Z,79.96
2022-12-14T20:09:42.931Z,79.94
2022-12-14T20:12:52.644Z,79.93
2022-12-14T20:16:09.290Z,79.96
2022-12-14T20:19:31.834Z,79.91
2022-12-14T20:22:44.015Z,79.87
2022-12-14T20:25:55.764Z,79.77
2022-12-14T20:29:23.357Z,79.79
2022-12-14T20:32:35.367Z,79.60
2022-12-14T20:35:48.015Z,79.33
2022-12-14T20:39:00.535Z,79.35
2022-12-14T20:42:14.935Z,79.54
2022-12-14T20:45:34.351Z,79.61
2022-12-14T20:48:56.599Z,79.66
2022-12-14T20:52:13.290Z,79.69
2022-12-14T20:55:23.648Z,79.51
2022-12-14T20:59:10.167Z,79.38
2022-12-14T21:02:47.435Z,79.49
2022-12-14T21:06:13.871Z,79.54
2022-12-14T21:09:46.259Z,79.34
2022-12-14T21:13:07.756Z,79.16
2022-12-14T21:16:44.269Z,79.13
